Time;durP1;ratioP1;P1;durP2;ratioP2;P2;SDS_P1;SDS_P2;PMS_P1;PMS_P2;Temp;Humidity;BMP_temperature;BMP_pressure;BME280_temperature;BME280_humidity;BME280_pressure;Samples;Min_cycle;Max_cycle;Signal;HPM_P1;HPM_P2
2022/05/10 00:00:49;;;;;;;9.40;3.03;;;;;;;;;;5000248;28;20050;-74
2022/05/10 00:03:16;;;;;;;13.20;4.53;;;;;;;;;;4998148;28;20102;-76
2022/05/10 00:05:43;;;;;;;8.20;3.08;;;;;;;;;;4999313;28;20027;-76
2022/05/10 00:08:11;;;;;;;40.20;5.07;;;;;;;;;;5000233;28;20019;-76
2022/05/10 00:10:37;;;;;;;12.32;3.05;;;;;;;;;;4997952;28;20034;-75
2022/05/10 00:13:04;;;;;;;7.53;3.25;;;;;;;;;;5005586;28;20126;-74
2022/05/10 00:15:30;;;;;;;9.10;3.05;;;;;;;;;;5000921;28;20026;-74
2022/05/10 00:17:56;;;;;;;9.30;3.50;;;;;;;;;;5004354;28;20046;-74
2022/05/10 00:20:24;;;;;;;10.85;4.43;;;;;;;;;;5002745;28;20037;-75
2022/05/10 00:22:50;;;;;;;11.45;3.97;;;;;;;;;;5007973;28;20026;-74
2022/05/10 00:25:18;;;;;;;10.77;3.20;;;;;;;;;;5008330;28;20037;-75
2022/05/10 00:27:44;;;;;;;9.32;3.55;;;;;;;;;;5005537;28;20044;-72
2022/05/10 00:30:10;;;;;;;7.93;2.85;;;;;;;;;;5001326;28;20041;-74
2022/05/10 00:32:38;;;;;;;11.32;3.78;;;;;;;;;;5000988;28;20030;-76
2022/05/10 00:35:05;;;;;;;12.93;3.35;;;;;;;;;;5003557;28;20018;-75
2022/05/10 00:37:32;;;;;;;8.35;3.55;;;;;;;;;;5001432;28;20078;-74
2022/05/10 00:39:58;;;;;;;12.15;3.97;;;;;;;;;;5001403;28;20034;-76
2022/05/10 00:42:43;;;;;;;6.93;3.38;;;;;;;;;;5003961;28;20038;-75
2022/05/10 00:45:15;;;;;;;10.03;3.13;;;;;;;;;;5002221;28;20038;-74
2022/05/10 00:47:46;;;;;;;15.00;3.47;;;;;;;;;;5003711;28;20423;-75
2022/05/10 00:50:17;;;;;;;7.25;4.10;;;;;;;;;;5006885;28;20026;-75
2022/05/10 00:52:49;;;;;;;9.43;3.50;;;;;;;;;;5012185;28;20531;-74
2022/05/10 00:55:19;;;;;;;12.25;3.40;;;;;;;;;;5014142;28;20030;-73
2022/05/10 00:57:48;;;;;;;8.40;3.35;;;;;;;;;;5013894;28;20026;-73
2022/05/10 01:00:14;;;;;;;11.32;2.90;;;;;;;;;;5011200;28;20034;-75
2022/05/10 01:02:44;;;;;;;16.67;3.70;;;;;;;;;;5011586;28;20037;-76
2022/05/10 01:05:29;;;;;;;12.52;3.78;;;;;;;;;;5011454;28;20713;-74
2022/05/10 01:07:58;;;;;;;9.20;3.00;;;;;;;;;;5005540;28;20034;-76
2022/05/10 01:10:32;;;;;;;9.70;2.97;;;;;;;;;;5011743;28;20032;-74
2022/05/10 01:13:03;;;;;;;13.45;3.17;;;;;;;;;;5007394;28;20034;-74
2022/05/10 01:15:31;;;;;;;8.13;3.08;;;;;;;;;;5012818;28;20034;-74
2022/05/10 01:17:58;;;;;;;11.23;3.30;;;;;;;;;;5009858;28;20053;-76
2022/05/10 01:20:36;;;;;;;10.70;3.25;;;;;;;;;;5012918;28;20123;-75
2022/05/10 01:23:21;;;;;;;10.05;4.72;;;;;;;;;;5005086;28;20048;-76
2022/05/10 01:25:55;;;;;;;8.80;2.73;;;;;;;;;;5007065;28;20033;-76
2022/05/10 01:28:30;;;;;;;7.28;2.90;;;;;;;;;;5007436;28;20282;-76
2022/05/10 01:30:57;;;;;;;8.15;2.92;;;;;;;;;;5008453;28;20034;-75
2022/05/10 01:33:31;;;;;;;8.45;3.22;;;;;;;;;;5013301;28;20039;-76
2022/05/10 01:36:03;;;;;;;9.27;3.10;;;;;;;;;;5006419;28;20510;-75
2022/05/10 01:38:38;;;;;;;7.93;2.75;;;;;;;;;;5005089;28;20080;-75
2022/05/10 01:41:14;;;;;;;5.28;2.60;;;;;;;;;;5005333;28;20050;-74
2022/05/10 01:43:48;;;;;;;9.93;3.38;;;;;;;;;;5011189;28;20044;-74
2022/05/10 01:46:20;;;;;;;11.85;3.65;;;;;;;;;;5013693;28;20018;-76
2022/05/10 01:48:48;;;;;;;8.43;3.38;;;;;;;;;;5006557;28;20392;-75
2022/05/10 01:51:23;;;;;;;8.25;2.80;;;;;;;;;;5016874;28;20113;-77
2022/05/10 01:53:49;;;;;;;;;;;;;;;;;;5020876;28;20459;-75
2022/05/10 01:56:17;;;;;;;11.38;2.95;;;;;;;;;;5020331;28;19913;-73
2022/05/10 01:58:44;;;;;;;11.40;2.92;;;;;;;;;;5008447;28;20045;-76
2022/05/10 02:01:30;;;;;;;12.02;3.58;;;;;;;;;;5004561;28;20034;-74
2022/05/10 02:03:59;;;;;;;13.65;3.97;;;;;;;;;;5010434;28;20022;-73
2022/05/10 02:06:44;;;;;;;13.55;3.33;;;;;;;;;;5010098;28;20026;-75
2022/05/10 02:09:10;;;;;;;15.48;3.47;;;;;;;;;;5013223;28;20485;-76
2022/05/10 02:11:39;;;;;;;11.13;3.55;;;;;;;;;;5012466;28;20618;-74
2022/05/10 02:14:10;;;;;;;8.60;3.15;;;;;;;;;;5007641;28;20065;-74
2022/05/10 02:16:42;;;;;;;21.75;5.35;;;;;;;;;;5003310;28;20049;-75
2022/05/10 02:19:11;;;;;;;14.55;4.88;;;;;;;;;;5010880;28;20044;-74
2022/05/10 02:21:43;;;;;;;11.00;3.70;;;;;;;;;;5005312;28;20027;-75
2022/05/10 02:24:13;;;;;;;7.35;4.07;;;;;;;;;;5015172;28;20030;-75
2022/05/10 02:26:50;;;;;;;9.32;3.92;;;;;;;;;;5014006;28;20037;-77
2022/05/10 02:29:16;;;;;;;10.27;2.85;;;;;;;;;;5016297;28;20022;-74
2022/05/10 02:34:34;;;;;;;9.70;2.75;;;;;;;;;;4999634;28;20412;-73
2022/05/10 02:37:00;;;;;;;7.53;3.33;;;;;;;;;;5010102;28;20030;-73
2022/05/10 02:39:26;;;;;;;9.68;2.78;;;;;;;;;;5006212;28;20025;-74
2022/05/10 02:41:53;;;;;;;7.05;2.65;;;;;;;;;;5010240;28;20022;-74
2022/05/10 02:44:19;;;;;;;6.78;2.75;;;;;;;;;;5008450;28;20029;-74
2022/05/10 02:46:45;;;;;;;14.77;2.88;;;;;;;;;;5008524;28;20500;-75
2022/05/10 02:49:11;;;;;;;10.05;3.50;;;;;;;;;;5009798;28;20057;-72
2022/05/10 02:51:37;;;;;;;10.25;3.05;;;;;;;;;;5012881;28;20069;-73
2022/05/10 02:54:03;;;;;;;5.57;2.78;;;;;;;;;;5014865;28;20034;-73
2022/05/10 02:56:30;;;;;;;12.43;3.13;;;;;;;;;;5011666;28;20416;-74
2022/05/10 02:59:26;;;;;;;9.20;2.53;;;;;;;;;;5008921;28;20040;-73
2022/05/10 03:02:03;;;;;;;9.10;3.65;;;;;;;;;;4999925;28;20045;-76
2022/05/10 03:04:36;;;;;;;10.73;3.35;;;;;;;;;;5009624;28;20022;-74
2022/05/10 03:07:07;;;;;;;10.95;2.92;;;;;;;;;;5009752;28;20563;-73
2022/05/10 03:09:34;;;;;;;8.10;3.00;;;;;;;;;;5012476;28;20080;-74
2022/05/10 03:12:02;;;;;;;7.75;2.83;;;;;;;;;;5005492;28;20049;-75
2022/05/10 03:14:28;;;;;;;5.78;3.13;;;;;;;;;;5008222;28;20388;-73
2022/05/10 03:16:54;;;;;;;11.10;2.80;;;;;;;;;;4999213;28;20053;-74
2022/05/10 03:19:20;;;;;;;8.15;3.60;;;;;;;;;;5003191;28;21260;-72
2022/05/10 03:21:46;;;;;;;8.55;2.85;;;;;;;;;;5006939;28;20030;-73
2022/05/10 03:24:13;;;;;;;6.43;2.78;;;;;;;;;;5010019;28;20392;-74
2022/05/10 03:26:44;;;;;;;5.53;2.47;;;;;;;;;;5011757;28;20036;-75
2022/05/10 03:29:10;;;;;;;6.88;2.63;;;;;;;;;;5010905;28;20092;-73
2022/05/10 03:31:36;;;;;;;6.55;2.70;;;;;;;;;;5012426;28;20080;-74
2022/05/10 03:36:50;;;;;;;9.77;3.35;;;;;;;;;;5013837;28;20080;-74
2022/05/10 03:39:16;;;;;;;9.05;2.85;;;;;;;;;;5014629;28;20037;-74
2022/05/10 03:41:42;;;;;;;9.90;3.25;;;;;;;;;;5015831;28;20097;-75
2022/05/10 03:44:08;;;;;;;6.78;2.53;;;;;;;;;;5010784;28;20076;-74
2022/05/10 03:46:35;;;;;;;6.78;3.45;;;;;;;;;;5015297;28;20391;-74
2022/05/10 03:49:01;;;;;;;8.77;3.05;;;;;;;;;;5017532;28;20038;-75
2022/05/10 03:51:27;;;;;;;8.35;2.97;;;;;;;;;;5013894;28;20038;-73
2022/05/10 03:53:53;;;;;;;13.43;3.97;;;;;;;;;;5014176;28;20030;-73
2022/05/10 03:56:20;;;;;;;10.70;2.70;;;;;;;;;;5012522;28;20443;-76
2022/05/10 03:58:46;;;;;;;6.78;2.80;;;;;;;;;;5014993;28;20064;-72
2022/05/10 04:01:12;;;;;;;5.55;2.70;;;;;;;;;;5011708;28;20507;-72
2022/05/10 04:03:38;;;;;;;8.50;2.55;;;;;;;;;;5011798;28;20065;-74
2022/05/10 04:06:05;;;;;;;7.97;2.80;;;;;;;;;;5012210;28;20025;-75
2022/05/10 04:08:31;;;;;;;12.13;3.25;;;;;;;;;;5012832;28;20044;-73
2022/05/10 04:11:07;;;;;;;12.60;2.90;;;;;;;;;;5010787;28;20037;-74
2022/05/10 04:13:33;;;;;;;7.70;2.88;;;;;;;;;;5005074;28;20056;-74
2022/05/10 04:16:00;;;;;;;11.77;2.58;;;;;;;;;;5007549;28;20081;-73
2022/05/10 04:18:26;;;;;;;7.65;2.80;;;;;;;;;;5009604;28;20073;-73
2022/05/10 04:20:53;;;;;;;8.18;3.35;;;;;;;;;;5012331;28;20049;-73
2022/05/10 04:23:19;;;;;;;7.95;3.88;;;;;;;;;;5007711;28;20030;-74
2022/05/10 04:25:45;;;;;;;8.07;2.60;;;;;;;;;;5016412;28;20057;-75
2022/05/10 04:28:11;;;;;;;10.38;3.45;;;;;;;;;;5017892;28;20200;-74
2022/05/10 04:30:37;;;;;;;9.48;4.32;;;;;;;;;;5017283;28;20022;-73
2022/05/10 04:33:04;;;;;;;12.20;2.90;;;;;;;;;;5017172;28;20026;-73
2022/05/10 04:35:30;;;;;;;7.93;2.95;;;;;;;;;;5006639;28;20396;-74
2022/05/10 04:37:56;;;;;;;8.35;2.63;;;;;;;;;;5006919;28;20033;-73
2022/05/10 04:43:07;;;;;;;8.20;2.83;;;;;;;;;;5010552;28;20040;-72
2022/05/10 04:45:33;;;;;;;13.48;2.85;;;;;;;;;;5014543;28;20093;-76
2022/05/10 04:47:59;;;;;;;11.05;3.10;;;;;;;;;;5011147;28;20030;-74
2022/05/10 04:50:29;;;;;;;10.43;2.80;;;;;;;;;;5013972;28;20029;-73
2022/05/10 04:52:55;;;;;;;6.97;3.10;;;;;;;;;;5017224;28;20072;-74
2022/05/10 04:55:21;;;;;;;11.45;2.92;;;;;;;;;;5011589;28;20458;-74
2022/05/10 04:57:47;;;;;;;9.70;2.67;;;;;;;;;;5013914;28;20413;-75
2022/05/10 05:00:15;;;;;;;9.98;2.92;;;;;;;;;;5009625;28;20026;-73
2022/05/10 05:02:42;;;;;;;11.20;2.90;;;;;;;;;;5011495;28;20066;-73
2022/05/10 05:05:09;;;;;;;9.57;3.85;;;;;;;;;;5006341;28;20084;-75
2022/05/10 05:07:35;;;;;;;8.15;3.03;;;;;;;;;;5005719;28;20121;-73
2022/05/10 05:10:03;;;;;;;9.63;2.92;;;;;;;;;;5013445;28;20026;-74
2022/05/10 05:12:33;;;;;;;11.48;3.50;;;;;;;;;;5009481;28;20065;-73
2022/05/10 05:15:00;;;;;;;9.25;3.50;;;;;;;;;;5008912;28;20062;-74
2022/05/10 05:17:26;;;;;;;8.82;2.80;;;;;;;;;;5010704;28;20733;-72
2022/05/10 05:19:52;;;;;;;12.50;3.03;;;;;;;;;;5004783;28;20044;-74
2022/05/10 05:22:18;;;;;;;8.25;3.05;;;;;;;;;;5009984;28;20034;-74
2022/05/10 05:24:44;;;;;;;7.95;2.85;;;;;;;;;;5005619;28;20434;-73
2022/05/10 05:27:11;;;;;;;10.93;3.28;;;;;;;;;;5011284;28;20099;-75
2022/05/10 05:29:37;;;;;;;10.57;3.42;;;;;;;;;;5005931;28;20030;-75
2022/05/10 05:32:05;;;;;;;12.73;4.13;;;;;;;;;;5013805;28;20033;-75
2022/05/10 05:34:32;;;;;;;12.02;4.47;;;;;;;;;;5017328;28;20033;-73
2022/05/10 05:39:43;;;;;;;15.55;3.85;;;;;;;;;;5010159;28;20041;-72
2022/05/10 05:42:09;;;;;;;16.60;3.83;;;;;;;;;;5004093;28;20033;-75
2022/05/10 05:44:35;;;;;;;10.07;2.80;;;;;;;;;;5010531;28;20101;-72
2022/05/10 05:47:01;;;;;;;6.90;3.20;;;;;;;;;;5009201;28;20042;-73
2022/05/10 05:49:27;;;;;;;12.25;3.05;;;;;;;;;;5009967;28;20038;-73
2022/05/10 05:51:57;;;;;;;15.25;3.42;;;;;;;;;;5008878;28;20022;-73
2022/05/10 05:54:23;;;;;;;9.18;3.88;;;;;;;;;;5009651;28;20501;-74
2022/05/10 05:56:49;;;;;;;10.82;2.70;;;;;;;;;;5011733;28;20520;-75
2022/05/10 05:59:15;;;;;;;8.98;2.80;;;;;;;;;;5009292;28;20026;-74
2022/05/10 06:01:41;;;;;;;7.95;3.53;;;;;;;;;;5014059;28;20034;-74
2022/05/10 06:04:07;;;;;;;16.13;3.55;;;;;;;;;;5009638;28;20537;-73
2022/05/10 06:06:33;;;;;;;8.43;2.97;;;;;;;;;;5015648;28;20073;-75
2022/05/10 06:08:59;;;;;;;11.45;2.83;;;;;;;;;;5013803;28;20058;-72
2022/05/10 06:11:25;;;;;;;7.95;3.08;;;;;;;;;;5013872;28;20037;-72
2022/05/10 06:13:52;;;;;;;8.20;2.85;;;;;;;;;;5014519;28;20542;-73
2022/05/10 06:16:18;;;;;;;6.40;3.28;;;;;;;;;;5009060;28;20026;-72
2022/05/10 06:18:44;;;;;;;10.27;2.75;;;;;;;;;;5013936;28;20029;-74
2022/05/10 06:21:10;;;;;;;7.20;2.60;;;;;;;;;;5018653;28;20037;-71
2022/05/10 06:23:36;;;;;;;11.80;3.00;;;;;;;;;;5010842;28;20098;-73
2022/05/10 06:26:03;;;;;;;11.23;3.13;;;;;;;;;;5011635;28;20087;-73
2022/05/10 06:28:30;;;;;;;8.02;2.72;;;;;;;;;;5011138;28;20029;-74
2022/05/10 06:30:56;;;;;;;8.50;3.30;;;;;;;;;;5004270;28;20177;-74
2022/05/10 06:33:22;;;;;;;11.90;3.85;;;;;;;;;;5005811;28;20064;-73
2022/05/10 06:35:48;;;;;;;6.68;2.65;;;;;;;;;;5005524;28;20072;-74
2022/05/10 06:38:19;;;;;;;9.98;3.70;;;;;;;;;;5007894;28;20437;-74
2022/05/10 06:40:46;;;;;;;8.13;3.40;;;;;;;;;;5001708;28;20026;-74
2022/05/10 06:43:13;;;;;;;8.10;2.38;;;;;;;;;;5000402;28;20113;-73
2022/05/10 06:45:42;;;;;;;7.57;2.60;;;;;;;;;;5006228;28;20026;-74
2022/05/10 06:48:09;;;;;;;12.32;3.13;;;;;;;;;;5015173;28;20505;-73
2022/05/10 06:50:36;;;;;;;6.18;2.75;;;;;;;;;;5000563;28;20061;-74
2022/05/10 06:53:02;;;;;;;6.85;2.95;;;;;;;;;;5008713;28;20084;-74
2022/05/10 06:55:30;;;;;;;10.18;3.50;;;;;;;;;;5006920;28;20421;-74
2022/05/10 06:57:56;;;;;;;5.18;2.42;;;;;;;;;;5003229;28;20018;-74
2022/05/10 07:00:22;;;;;;;7.57;2.95;;;;;;;;;;5001618;28;20038;-74
2022/05/10 07:02:49;;;;;;;10.18;3.65;;;;;;;;;;5007219;28;20077;-74
2022/05/10 07:05:16;;;;;;;10.20;2.80;;;;;;;;;;5008099;28;20038;-74
2022/05/10 07:07:43;;;;;;;13.07;3.72;;;;;;;;;;5003601;28;20033;-74
2022/05/10 07:10:10;;;;;;;10.40;2.85;;;;;;;;;;4998593;28;20505;-73
2022/05/10 07:12:41;;;;;;;9.52;2.90;;;;;;;;;;5003725;28;20562;-74
2022/05/10 07:15:08;;;;;;;7.07;2.70;;;;;;;;;;4999353;28;20188;-73
2022/05/10 07:17:34;;;;;;;9.02;2.47;;;;;;;;;;5005278;28;20057;-73
2022/05/10 07:20:02;;;;;;;10.15;2.90;;;;;;;;;;5008909;28;20030;-75
2022/05/10 07:22:28;;;;;;;11.70;3.08;;;;;;;;;;5013923;28;20029;-75
2022/05/10 07:24:54;;;;;;;14.73;4.18;;;;;;;;;;5007770;28;20061;-75
2022/05/10 07:27:20;;;;;;;10.98;3.17;;;;;;;;;;4997098;28;20023;-75
2022/05/10 07:29:47;;;;;;;7.57;2.50;;;;;;;;;;5004397;28;20030;-75
2022/05/10 07:32:14;;;;;;;10.27;2.85;;;;;;;;;;5005804;28;20357;-73
2022/05/10 07:34:41;;;;;;;11.63;4.50;;;;;;;;;;4999270;28;20057;-73
2022/05/10 07:37:07;;;;;;;9.25;3.75;;;;;;;;;;5000113;28;20022;-72
2022/05/10 07:39:34;;;;;;;7.57;2.40;;;;;;;;;;4997509;28;20117;-74
2022/05/10 07:42:03;;;;;;;7.32;3.00;;;;;;;;;;5006679;28;20025;-76
2022/05/10 07:44:29;;;;;;;13.13;2.85;;;;;;;;;;4996809;28;20502;-75
2022/05/10 07:46:55;;;;;;;5.88;2.25;;;;;;;;;;5000080;28;20040;-75
2022/05/10 07:49:21;;;;;;;7.00;2.53;;;;;;;;;;4995333;28;20043;-73
2022/05/10 07:51:47;;;;;;;7.95;4.13;;;;;;;;;;4997063;28;20060;-74
2022/05/10 07:54:13;;;;;;;8.18;2.65;;;;;;;;;;4999171;28;20038;-73
2022/05/10 07:56:41;;;;;;;6.57;2.30;;;;;;;;;;4999611;28;20109;-75
2022/05/10 07:59:07;;;;;;;6.07;2.17;;;;;;;;;;4997134;28;20421;-74
2022/05/10 08:01:34;;;;;;;9.48;4.25;;;;;;;;;;5000024;28;20576;-74
2022/05/10 08:04:00;;;;;;;9.52;3.13;;;;;;;;;;5013612;28;20640;-74
2022/05/10 08:06:26;;;;;;;7.45;2.47;;;;;;;;;;4999336;28;20097;-76
2022/05/10 08:08:52;;;;;;;6.78;2.78;;;;;;;;;;5005373;28;20036;-74
2022/05/10 08:11:19;;;;;;;6.25;2.33;;;;;;;;;;5000842;28;20065;-74
2022/05/10 08:13:45;;;;;;;9.18;2.67;;;;;;;;;;4999417;28;20031;-74
2022/05/10 08:16:11;;;;;;;7.20;2.88;;;;;;;;;;4993734;28;20029;-73
2022/05/10 08:18:39;;;;;;;11.98;3.72;;;;;;;;;;4999910;28;20527;-74
2022/05/10 08:21:05;;;;;;;6.85;2.30;;;;;;;;;;4997385;28;20029;-75
2022/05/10 08:23:32;;;;;;;5.22;2.90;;;;;;;;;;4997771;28;20030;-74
2022/05/10 08:25:59;;;;;;;13.27;3.00;;;;;;;;;;4996268;28;20041;-74
2022/05/10 08:28:27;;;;;;;6.18;2.50;;;;;;;;;;4999230;28;20113;-74
2022/05/10 08:30:53;;;;;;;6.82;2.88;;;;;;;;;;5001358;28;20033;-73
2022/05/10 08:33:20;;;;;;;3.75;2.35;;;;;;;;;;5004369;28;20041;-74
2022/05/10 08:35:50;;;;;;;5.60;2.63;;;;;;;;;;5003643;28;20036;-74
2022/05/10 08:38:17;;;;;;;8.05;2.83;;;;;;;;;;5002865;28;20034;-74
2022/05/10 08:40:48;;;;;;;7.13;2.30;;;;;;;;;;5004754;28;20021;-74
2022/05/10 08:43:26;;;;;;;7.93;2.20;;;;;;;;;;4998127;28;20040;-74
2022/05/10 08:45:53;;;;;;;9.20;2.65;;;;;;;;;;4994860;28;20045;-75
2022/05/10 08:48:19;;;;;;;7.53;3.33;;;;;;;;;;5001208;28;20030;-76
2022/05/10 08:50:49;;;;;;;8.82;3.45;;;;;;;;;;5006364;28;20060;-76
2022/05/10 08:53:16;;;;;;;5.88;2.58;;;;;;;;;;4999211;28;20376;-76
2022/05/10 08:55:45;;;;;;;7.85;2.85;;;;;;;;;;4998657;28;20018;-75
2022/05/10 08:58:21;;;;;;;10.80;3.10;;;;;;;;;;4999243;28;20484;-75
2022/05/10 09:00:50;;;;;;;7.35;2.20;;;;;;;;;;4995600;28;20441;-75
2022/05/10 09:03:25;;;;;;;9.18;2.55;;;;;;;;;;5004250;28;20049;-75
2022/05/10 09:05:51;;;;;;;7.70;2.80;;;;;;;;;;5004451;28;20028;-75
2022/05/10 09:08:25;;;;;;;7.43;2.40;;;;;;;;;;4997403;28;20407;-74
2022/05/10 09:10:51;;;;;;;7.18;2.55;;;;;;;;;;5005911;28;20026;-74
2022/05/10 09:13:18;;;;;;;6.90;2.10;;;;;;;;;;5000346;28;20037;-74
2022/05/10 09:15:47;;;;;;;7.78;2.38;;;;;;;;;;5004441;28;20080;-74
2022/05/10 09:18:24;;;;;;;8.82;2.60;;;;;;;;;;5002745;28;20133;-74
2022/05/10 09:20:59;;;;;;;5.50;1.98;;;;;;;;;;5007184;28;20022;-74
2022/05/10 09:23:47;;;;;;;7.55;2.75;;;;;;;;;;5004719;28;20044;-75
2022/05/10 09:26:14;;;;;;;6.90;2.63;;;;;;;;;;5005123;28;20052;-74
2022/05/10 09:28:47;;;;;;;7.18;2.50;;;;;;;;;;5001793;28;20052;-74
2022/05/10 09:36:57;;;;;;;6.63;2.47;;;;;;;;;;5006459;28;20048;-73
2022/05/10 09:39:30;;;;;;;8.15;2.47;;;;;;;;;;4998621;28;20050;-74
2022/05/10 09:41:56;;;;;;;10.27;3.08;;;;;;;;;;4998382;28;20044;-74
2022/05/10 09:44:27;;;;;;;4.35;2.55;;;;;;;;;;5000567;28;20042;-75
2022/05/10 09:47:10;;;;;;;6.80;2.50;;;;;;;;;;4997465;28;20048;-74
2022/05/10 09:49:37;;;;;;;6.93;2.72;;;;;;;;;;4997711;28;20092;-75
2022/05/10 09:52:05;;;;;;;5.50;3.13;;;;;;;;;;4996400;28;20031;-76
2022/05/10 09:54:36;;;;;;;4.82;2.75;;;;;;;;;;5005472;28;20065;-75
2022/05/10 09:57:02;;;;;;;8.18;2.97;;;;;;;;;;5000845;28;20047;-75
2022/05/10 09:59:40;;;;;;;8.90;2.67;;;;;;;;;;5000536;28;20045;-77
2022/05/10 10:02:06;;;;;;;7.97;2.63;;;;;;;;;;4998659;28;20022;-75
2022/05/10 10:04:44;;;;;;;4.53;2.42;;;;;;;;;;5000544;28;20062;-74
2022/05/10 10:07:10;;;;;;;8.02;2.50;;;;;;;;;;4995281;28;20046;-75
2022/05/10 10:09:38;;;;;;;6.60;2.17;;;;;;;;;;4999416;28;20519;-75
2022/05/10 10:12:08;;;;;;;9.68;2.40;;;;;;;;;;4996718;28;20044;-75
2022/05/10 10:14:38;;;;;;;5.05;2.17;;;;;;;;;;4997299;28;21179;-74
2022/05/10 10:17:04;;;;;;;6.88;2.22;;;;;;;;;;4996678;28;20525;-74
2022/05/10 10:19:36;;;;;;;5.38;2.00;;;;;;;;;;4996797;28;20022;-74
2022/05/10 10:22:05;;;;;;;6.68;2.33;;;;;;;;;;4996477;28;20030;-75
2022/05/10 10:24:52;;;;;;;7.05;2.45;;;;;;;;;;4998240;28;20440;-76
2022/05/10 10:27:23;;;;;;;5.90;2.42;;;;;;;;;;4996507;28;20050;-75
2022/05/10 10:29:54;;;;;;;7.30;3.05;;;;;;;;;;4998958;28;20030;-73
2022/05/10 10:32:28;;;;;;;9.73;2.60;;;;;;;;;;4996496;28;20354;-74
2022/05/10 10:35:02;;;;;;;5.38;2.17;;;;;;;;;;5000266;28;20041;-74
2022/05/10 10:37:35;;;;;;;3.88;2.13;;;;;;;;;;5001139;28;20037;-74
2022/05/10 10:40:04;;;;;;;2.70;2.10;;;;;;;;;;4996068;28;20026;-74
2022/05/10 10:42:49;;;;;;;4.43;2.25;;;;;;;;;;4999560;28;20069;-74
2022/05/10 10:45:15;;;;;;;6.15;3.40;;;;;;;;;;4999599;28;20021;-74
2022/05/10 10:48:00;;;;;;;4.95;2.22;;;;;;;;;;4996395;28;20050;-74
2022/05/10 10:50:28;;;;;;;10.73;2.60;;;;;;;;;;5000278;28;20444;-75
2022/05/10 10:52:56;;;;;;;6.10;2.85;;;;;;;;;;4998952;28;20109;-75
2022/05/10 10:55:30;;;;;;;5.25;2.55;;;;;;;;;;4996968;28;20041;-74
2022/05/10 10:58:11;;;;;;;6.35;2.15;;;;;;;;;;4996751;28;20026;-74
2022/05/10 11:00:42;;;;;;;8.15;2.15;;;;;;;;;;5001113;28;20050;-74
2022/05/10 11:03:12;;;;;;;7.07;3.20;;;;;;;;;;4999848;28;20127;-74
2022/05/10 11:05:38;;;;;;;7.38;2.25;;;;;;;;;;4998691;28;20089;-75
2022/05/10 11:08:19;;;;;;;5.40;2.00;;;;;;;;;;4998310;28;20057;-75
2022/05/10 11:11:05;;;;;;;5.82;2.30;;;;;;;;;;4999824;28;20484;-74
2022/05/10 11:13:43;;;;;;;5.22;2.15;;;;;;;;;;5001381;28;20033;-75
2022/05/10 11:16:28;;;;;;;6.78;2.72;;;;;;;;;;5002096;28;20026;-76
2022/05/10 11:19:00;;;;;;;6.72;2.50;;;;;;;;;;5000972;28;20488;-74
2022/05/10 11:21:27;;;;;;;5.57;2.55;;;;;;;;;;5005344;28;20121;-75
2022/05/10 11:24:03;;;;;;;5.45;2.17;;;;;;;;;;4999093;28;20069;-75
2022/05/10 11:26:47;;;;;;;6.25;2.17;;;;;;;;;;4999660;28;20041;-74
2022/05/10 11:29:28;;;;;;;6.22;2.10;;;;;;;;;;5001364;28;20054;-74
2022/05/10 11:32:00;;;;;;;5.40;2.65;;;;;;;;;;5001248;28;20033;-74
2022/05/10 11:34:45;;;;;;;5.45;2.47;;;;;;;;;;5002944;28;20041;-74
2022/05/10 11:37:14;;;;;;;3.00;1.90;;;;;;;;;;5020638;28;20025;-74
2022/05/10 11:39:53;;;;;;;11.07;3.10;;;;;;;;;;4997556;28;20022;-73
2022/05/10 11:42:22;;;;;;;6.25;2.45;;;;;;;;;;4998624;28;20030;-74
2022/05/10 11:44:54;;;;;;;4.88;2.30;;;;;;;;;;5001647;28;20030;-73
2022/05/10 11:47:23;;;;;;;6.25;2.10;;;;;;;;;;4997495;28;20103;-74
2022/05/10 11:50:12;;;;;;;5.38;2.10;;;;;;;;;;4997148;28;20523;-75
2022/05/10 11:52:57;;;;;;;6.50;2.45;;;;;;;;;;4997092;28;20084;-75
2022/05/10 11:55:23;;;;;;;4.07;2.28;;;;;;;;;;5002267;28;20025;-74
2022/05/10 11:57:51;;;;;;;4.85;2.08;;;;;;;;;;5004781;28;20034;-75
2022/05/10 12:00:32;;;;;;;5.13;2.45;;;;;;;;;;4996746;28;20030;-74
2022/05/10 12:03:05;;;;;;;6.82;2.13;;;;;;;;;;5003150;28;20025;-73
2022/05/10 12:05:33;;;;;;;8.35;2.20;;;;;;;;;;4996878;28;20030;-74
2022/05/10 12:08:02;;;;;;;8.68;2.42;;;;;;;;;;4996265;28;20054;-74
2022/05/10 12:10:28;;;;;;;4.85;2.67;;;;;;;;;;4994690;28;20488;-74
2022/05/10 12:13:04;;;;;;;5.78;2.47;;;;;;;;;;5002997;28;20455;-75
2022/05/10 12:21:19;;;;;;;6.25;2.60;;;;;;;;;;5005614;28;20034;-74
2022/05/10 12:24:03;;;;;;;8.43;2.40;;;;;;;;;;5002878;28;20030;-74
2022/05/10 12:26:49;;;;;;;3.15;2.25;;;;;;;;;;5006036;28;20034;-74
2022/05/10 12:29:15;;;;;;;;;;;;;;;;;;5000379;28;20030;-74
2022/05/10 12:31:47;;;;;;;3.88;2.00;;;;;;;;;;4996782;28;19912;-75
2022/05/10 12:34:32;;;;;;;4.63;2.30;;;;;;;;;;5000976;28;20050;-74
2022/05/10 12:37:20;;;;;;;4.17;2.10;;;;;;;;;;5002368;28;20416;-74
2022/05/10 12:39:52;;;;;;;6.95;2.72;;;;;;;;;;5007450;28;20014;-74
2022/05/10 12:42:24;;;;;;;3.85;2.20;;;;;;;;;;4995572;28;20354;-75
2022/05/10 12:44:57;;;;;;;6.32;2.30;;;;;;;;;;5006877;28;20052;-75
2022/05/10 12:47:34;;;;;;;4.90;2.00;;;;;;;;;;5011869;28;20026;-74
2022/05/10 12:50:00;;;;;;;5.07;2.13;;;;;;;;;;5005452;28;20026;-73
2022/05/10 12:52:39;;;;;;;6.65;2.03;;;;;;;;;;5001636;28;20105;-74
2022/05/10 12:55:07;;;;;;;7.05;2.83;;;;;;;;;;5010014;28;20038;-73
2022/05/10 12:57:54;;;;;;;2.88;2.25;;;;;;;;;;4996948;28;20022;-75
2022/05/10 13:00:42;;;;;;;4.50;2.20;;;;;;;;;;4983652;28;20496;-75
2022/05/10 13:03:12;;;;;;;6.25;2.35;;;;;;;;;;4999749;28;20030;-76
2022/05/10 13:05:41;;;;;;;3.83;2.28;;;;;;;;;;5008334;28;20037;-76
2022/05/10 13:08:26;;;;;;;6.93;2.20;;;;;;;;;;5000243;28;20044;-76
2022/05/10 13:10:53;;;;;;;5.57;1.95;;;;;;;;;;5001411;28;20133;-76
2022/05/10 13:13:22;;;;;;;4.18;2.10;;;;;;;;;;5001742;28;20069;-75
2022/05/10 13:15:50;;;;;;;3.75;1.88;;;;;;;;;;5001010;28;20050;-74
2022/05/10 13:18:17;;;;;;;4.57;2.22;;;;;;;;;;5004719;28;20038;-76
2022/05/10 13:20:48;;;;;;;5.03;1.92;;;;;;;;;;5003379;28;20014;-75
2022/05/10 13:23:14;;;;;;;6.78;2.40;;;;;;;;;;5000414;28;20034;-75
2022/05/10 13:25:42;;;;;;;4.78;1.88;;;;;;;;;;4998741;28;20030;-75
2022/05/10 13:28:08;;;;;;;7.05;2.47;;;;;;;;;;5001933;28;20092;-74
2022/05/10 13:30:35;;;;;;;9.07;2.60;;;;;;;;;;5000089;28;20038;-74
2022/05/10 13:33:01;;;;;;;4.22;2.28;;;;;;;;;;4997350;28;20030;-75
2022/05/10 13:35:27;;;;;;;5.53;2.78;;;;;;;;;;5009753;28;20033;-76
2022/05/10 13:37:58;;;;;;;5.50;1.92;;;;;;;;;;5004074;28;20015;-75
2022/05/10 13:40:33;;;;;;;4.15;2.00;;;;;;;;;;5000194;28;20619;-75
2022/05/10 13:43:07;;;;;;;5.22;1.90;;;;;;;;;;5000383;28;20022;-75
2022/05/10 13:45:34;;;;;;;7.10;2.00;;;;;;;;;;4999849;28;20053;-75
2022/05/10 13:48:08;;;;;;;5.30;2.08;;;;;;;;;;5023699;28;20030;-75
2022/05/10 13:50:35;;;;;;;4.38;2.15;;;;;;;;;;5000989;28;20797;-75
2022/05/10 13:53:02;;;;;;;4.43;2.42;;;;;;;;;;4998233;28;20059;-75
2022/05/10 13:55:29;;;;;;;4.20;2.22;;;;;;;;;;5007085;28;20038;-75
2022/05/10 13:58:00;;;;;;;2.90;1.83;;;;;;;;;;4995217;28;20106;-74
2022/05/10 14:00:32;;;;;;;4.30;2.72;;;;;;;;;;4994574;28;20019;-75
2022/05/10 14:02:59;;;;;;;3.85;2.00;;;;;;;;;;4998720;28;20105;-75
2022/05/10 14:05:28;;;;;;;4.43;2.15;;;;;;;;;;4996410;28;20084;-75
2022/05/10 14:07:59;;;;;;;5.53;2.10;;;;;;;;;;4998143;28;20034;-76
2022/05/10 14:10:27;;;;;;;3.47;1.70;;;;;;;;;;4999963;28;20038;-75
2022/05/10 14:12:57;;;;;;;2.88;1.90;;;;;;;;;;5006328;28;20428;-74
2022/05/10 14:15:35;;;;;;;4.55;2.30;;;;;;;;;;4999132;28;20046;-75
2022/05/10 14:18:07;;;;;;;4.88;1.95;;;;;;;;;;5004069;28;20049;-75
2022/05/10 14:20:35;;;;;;;6.07;2.00;;;;;;;;;;5007989;28;20053;-75
2022/05/10 14:23:06;;;;;;;3.17;1.60;;;;;;;;;;5001185;28;20033;-74
2022/05/10 14:25:34;;;;;;;3.20;1.83;;;;;;;;;;5000447;28;20061;-73
2022/05/10 14:28:19;;;;;;;4.90;1.95;;;;;;;;;;4998575;28;20030;-75
2022/05/10 14:30:46;;;;;;;;;;;;;;;;;;4999399;28;20045;-76
2022/05/10 14:33:24;;;;;;;3.70;1.58;;;;;;;;;;5000468;28;19917;-74
2022/05/10 14:36:03;;;;;;;4.65;1.90;;;;;;;;;;5005601;28;20553;-74
2022/05/10 14:38:30;;;;;;;1.40;1.17;;;;;;;;;;5006155;28;20038;-74
2022/05/10 14:40:56;;;;;;;8.38;2.05;;;;;;;;;;5001948;28;20185;-75
2022/05/10 14:43:36;;;;;;;3.30;1.70;;;;;;;;;;5004620;28;20036;-75
2022/05/10 14:46:22;;;;;;;2.40;1.70;;;;;;;;;;4998990;28;20031;-75
2022/05/10 14:48:55;;;;;;;2.75;1.65;;;;;;;;;;4999081;28;20041;-75
2022/05/10 14:51:41;;;;;;;3.67;1.95;;;;;;;;;;5001506;28;20105;-75
2022/05/10 14:54:09;;;;;;;3.83;2.13;;;;;;;;;;4996971;28;20022;-75
2022/05/10 14:56:36;;;;;;;5.28;2.95;;;;;;;;;;5004487;28;20033;-74
2022/05/10 14:59:16;;;;;;;3.63;2.15;;;;;;;;;;4990936;28;20022;-74
2022/05/10 15:01:42;;;;;;;3.15;1.80;;;;;;;;;;4999311;28;20030;-73
2022/05/10 15:04:11;;;;;;;3.70;1.80;;;;;;;;;;5004254;28;20096;-74
2022/05/10 15:06:40;;;;;;;2.28;1.95;;;;;;;;;;4993913;28;20105;-75
2022/05/10 15:09:06;;;;;;;5.30;1.77;;;;;;;;;;4993111;28;20034;-74
2022/05/10 15:11:33;;;;;;;5.18;1.90;;;;;;;;;;5003137;28;20026;-74
2022/05/10 15:13:59;;;;;;;3.13;1.55;;;;;;;;;;5003028;28;20022;-75
2022/05/10 15:16:26;;;;;;;4.13;1.65;;;;;;;;;;4995026;28;20038;-74
2022/05/10 15:18:58;;;;;;;4.18;1.70;;;;;;;;;;5002691;28;20026;-74